createdAt,value
2023-01-29T00:01:48.144Z,-4.67
2023-01-29T00:06:51.265Z,-4.69
2023-01-29T00:11:53.828Z,-4.91
2023-01-29T00:16:56.550Z,-5.10
2023-01-29T00:21:59.274Z,-4.79
2023-01-29T00:27:01.844Z,-4.84
2023-01-29T00:32:04.965Z,-4.68
2023-01-29T00:37:09.103Z,-4.88
2023-01-29T00:42:31.880Z,-4.70
2023-01-29T00:47:34.652Z,-4.68
2023-01-29T00:52:37.458Z,-4.57
2023-01-29T00:57:40.934Z,-4.73
2023-01-29T01:03:03.503Z,-4.80
2023-01-29T01:08:26.036Z,-4.71
2023-01-29T01:13:28.838Z,-4.81
2023-01-29T01:18:32.870Z,-4.72
2023-01-29T01:23:35.765Z,-4.69
2023-01-29T01:28:39.639Z,-4.40
2023-01-29T01:33:42.296Z,-4.54
2023-01-29T01:38:44.889Z,-4.53
2023-01-29T01:43:58.246Z,-4.58
2023-01-29T01:59:34.388Z,-4.99
2023-01-29T02:05:07.749Z,-4.94
2023-01-29T02:10:15.613Z,-4.84
2023-01-29T02:15:18.438Z,-4.64
2023-01-29T02:20:26.756Z,-4.58
2023-01-29T02:37:12.655Z,-4.64
2023-01-29T02:53:00.810Z,-4.92
2023-01-29T02:58:12.002Z,-4.88
2023-01-29T03:03:38.166Z,-4.87
2023-01-29T03:08:45.867Z,-4.48
2023-01-29T03:14:02.904Z,-4.19
2023-01-29T03:19:12.272Z,-4.72
2023-01-29T03:24:40.126Z,-4.82
2023-01-29T03:30:04.015Z,-4.73
2023-01-29T03:35:37.546Z,-4.57
2023-01-29T03:41:07.904Z,-4.72
2023-01-29T03:57:15.580Z,-4.57
2023-01-29T04:02:28.039Z,-4.48
2023-01-29T04:07:36.916Z,-4.68
2023-01-29T04:12:48.578Z,-4.65
2023-01-29T04:17:53.606Z,-4.61
2023-01-29T04:23:08.006Z,-4.59
2023-01-29T04:28:21.549Z,-4.65
2023-01-29T04:33:41.984Z,-4.71
2023-01-29T05:00:17.180Z,-4.72
2023-01-29T05:05:21.282Z,-4.75
2023-01-29T05:10:25.461Z,-4.85
2023-01-29T05:15:37.743Z,-4.72
2023-01-29T05:20:43.808Z,-4.63
2023-01-29T05:25:46.916Z,-4.46
2023-01-29T05:30:53.036Z,-4.04
2023-01-29T05:35:56.574Z,-3.58
2023-01-29T05:40:59.701Z,-3.57
2023-01-29T05:46:02.322Z,-4.09
2023-01-29T05:51:05.257Z,-4.12
2023-01-29T05:56:07.981Z,-4.05
2023-01-29T06:01:14.763Z,-3.86
2023-01-29T06:06:17.875Z,-3.97
2023-01-29T06:11:20.836Z,-3.91
2023-01-29T06:16:23.619Z,-3.74
2023-01-29T06:21:26.166Z,-3.59
2023-01-29T06:26:28.774Z,-3.58
2023-01-29T06:31:39.908Z,-3.45
2023-01-29T06:36:43.219Z,-3.53
2023-01-29T06:41:46.836Z,-3.27
2023-01-29T06:46:49.379Z,-2.97
2023-01-29T06:51:51.906Z,-2.55
2023-01-29T06:56:54.457Z,-2.67
2023-01-29T07:01:57.054Z,-2.36
2023-01-29T07:07:00.341Z,-1.97
2023-01-29T07:12:04.913Z,-1.81
2023-01-29T07:17:07.726Z,-2.19
2023-01-29T07:22:10.403Z,-2.22
2023-01-29T07:27:13.092Z,-1.92
2023-01-29T07:32:15.734Z,-1.81
2023-01-29T07:37:18.372Z,-1.57
2023-01-29T07:42:20.935Z,-1.11
2023-01-29T07:47:23.488Z,-1.07
2023-01-29T07:52:26.154Z,-1.25
2023-01-29T07:57:28.817Z,-0.91
2023-01-29T08:02:31.446Z,-0.68
2023-01-29T08:07:34.077Z,-0.72
2023-01-29T08:12:37.050Z,-0.26
2023-01-29T08:17:56.090Z,-0.23
2023-01-29T08:23:04.633Z,0.22
2023-01-29T08:28:07.358Z,0.44
2023-01-29T08:33:10.245Z,0.63
2023-01-29T08:38:12.884Z,0.62
2023-01-29T08:43:16.245Z,0.56
2023-01-29T08:48:18.853Z,0.73
2023-01-29T08:53:24.744Z,0.85
2023-01-29T08:58:27.368Z,1.05
2023-01-29T09:03:29.953Z,1.18
2023-01-29T09:08:32.628Z,1.26
2023-01-29T09:13:35.587Z,1.50
2023-01-29T09:18:39.540Z,1.52
2023-01-29T09:23:44.796Z,1.67
2023-01-29T09:28:47.306Z,1.72
2023-01-29T09:33:49.873Z,1.68
2023-01-29T09:38:52.424Z,1.90
2023-01-29T09:44:00.243Z,1.87
2023-01-29T09:49:13.348Z,2.08
2023-01-29T09:54:27.500Z,1.84
2023-01-29T09:59:33.662Z,2.21
2023-01-29T10:10:21.255Z,2.09
2023-01-29T10:26:13.104Z,2.20
2023-01-29T10:31:25.322Z,2.41
2023-01-29T10:36:35.180Z,2.53
2023-01-29T10:52:54.763Z,2.39
2023-01-29T11:03:29.284Z,2.57
2023-01-29T11:08:43.388Z,2.46
2023-01-29T11:13:53.371Z,2.43
2023-01-29T11:18:59.779Z,2.43
2023-01-29T11:24:07.906Z,2.18
2023-01-29T11:29:34.399Z,2.04
2023-01-29T11:34:57.525Z,2.01
2023-01-29T11:40:00.147Z,2.01
2023-01-29T11:45:02.993Z,2.20
2023-01-29T11:50:06.621Z,2.32
2023-01-29T11:55:49.474Z,2.50
2023-01-29T12:00:55.499Z,2.69
2023-01-29T12:06:04.641Z,2.49
2023-01-29T12:11:35.366Z,2.38
2023-01-29T12:16:48.067Z,2.44
2023-01-29T12:32:55.793Z,2.32
2023-01-29T12:43:18.760Z,2.20
2023-01-29T12:48:27.978Z,2.25
2023-01-29T12:53:55.261Z,2.28
2023-01-29T12:59:01.596Z,2.17
2023-01-29T13:09:28.189Z,2.12
2023-01-29T13:15:10.557Z,2.08
2023-01-29T13:25:28.191Z,1.82
2023-01-29T13:30:33.648Z,1.73
2023-01-29T13:35:40.567Z,1.93
2023-01-29T13:40:50.920Z,1.58
2023-01-29T13:45:55.059Z,1.57
2023-01-29T13:51:02.222Z,1.57
2023-01-29T14:07:43.836Z,1.63
2023-01-29T14:12:47.731Z,1.75
2023-01-29T14:17:57.221Z,1.65
2023-01-29T14:23:04.076Z,1.55
2023-01-29T14:28:16.441Z,1.65
2023-01-29T14:38:52.563Z,1.90
2023-01-29T14:44:35.955Z,1.69
2023-01-29T14:49:59.072Z,1.80
2023-01-29T14:55:07.069Z,1.66
2023-01-29T15:00:27.830Z,1.77
2023-01-29T15:05:37.421Z,1.79
2023-01-29T15:10:46.014Z,1.32
2023-01-29T15:15:55.257Z,1.08
2023-01-29T15:21:12.183Z,0.95
2023-01-29T15:26:26.981Z,0.83
2023-01-29T15:31:30.034Z,0.83
2023-01-29T15:36:33.195Z,0.80
2023-01-29T15:41:39.149Z,0.66
2023-01-29T15:46:48.384Z,0.66
2023-01-29T15:51:57.188Z,0.86
2023-01-29T15:57:00.517Z,0.88
2023-01-29T16:02:25.027Z,0.77
2023-01-29T16:07:28.985Z,0.56
2023-01-29T16:12:33.840Z,0.50
2023-01-29T16:17:41.113Z,0.40
2023-01-29T16:22:46.615Z,0.32
2023-01-29T16:27:50.464Z,0.33
2023-01-29T16:32:53.268Z,0.23
2023-01-29T16:38:02.821Z,0.14
2023-01-29T16:48:37.715Z,-0.09
2023-01-29T16:53:52.465Z,-0.27
2023-01-29T16:58:55.915Z,-0.51
2023-01-29T17:04:07.772Z,-0.84
2023-01-29T17:09:22.696Z,-0.90
2023-01-29T17:14:26.461Z,-1.15
2023-01-29T17:19:30.319Z,-1.25
2023-01-29T17:24:32.847Z,-1.35
2023-01-29T17:29:36.529Z,-1.46
2023-01-29T17:34:39.199Z,-1.93
2023-01-29T17:39:42.803Z,-1.79
2023-01-29T17:44:46.526Z,-1.78
2023-01-29T17:49:49.488Z,-1.88
2023-01-29T17:54:52.146Z,-2.41
2023-01-29T17:59:57.444Z,-2.39
2023-01-29T18:05:00.143Z,-2.69
2023-01-29T18:10:03.966Z,-2.56
2023-01-29T18:15:07.092Z,-2.80
2023-01-29T18:20:22.285Z,-2.39
2023-01-29T18:25:25.998Z,-2.06
2023-01-29T18:30:29.038Z,-2.10
2023-01-29T18:35:31.594Z,-1.94
2023-01-29T18:40:34.259Z,-2.14
2023-01-29T18:45:36.916Z,-2.58
2023-01-29T18:50:39.920Z,-3.21
2023-01-29T18:55:42.617Z,-3.23
2023-01-29T19:00:45.484Z,-2.91
2023-01-29T19:05:48.293Z,-2.64
2023-01-29T19:10:50.864Z,-2.63
2023-01-29T19:15:53.745Z,-2.53
2023-01-29T19:20:56.519Z,-2.44
2023-01-29T19:25:59.139Z,-2.79
2023-01-29T19:31:02.589Z,-2.80
2023-01-29T19:36:06.801Z,-2.42
2023-01-29T19:41:09.866Z,-2.45
2023-01-29T19:46:12.636Z,-2.46
2023-01-29T19:51:16.061Z,-2.81
2023-01-29T19:56:20.007Z,-3.40
2023-01-29T20:01:24.809Z,-3.52
2023-01-29T20:06:31.143Z,-3.78
2023-01-29T20:11:35.169Z,-4.09
2023-01-29T20:16:38.671Z,-3.97
2023-01-29T20:21:45.490Z,-3.78
2023-01-29T20:26:48.719Z,-3.73
2023-01-29T20:31:51.400Z,-3.58
2023-01-29T20:36:53.979Z,-3.35
2023-01-29T20:41:57.428Z,-3.21
2023-01-29T20:47:02.694Z,-3.26
2023-01-29T20:52:06.662Z,-3.21
2023-01-29T20:57:09.638Z,-2.99
2023-01-29T21:02:13.653Z,-2.74
2023-01-29T21:07:16.534Z,-2.79
2023-01-29T21:12:19.128Z,-2.96
2023-01-29T21:17:21.789Z,-3.09
2023-01-29T21:22:24.489Z,-3.08
2023-01-29T21:27:27.358Z,-3.17
2023-01-29T21:32:29.989Z,-3.08
2023-01-29T21:37:36.966Z,-2.98
2023-01-29T21:43:01.541Z,-2.73
2023-01-29T21:48:04.894Z,-2.78
2023-01-29T21:53:07.817Z,-3.11
2023-01-29T21:58:12.313Z,-3.27
2023-01-29T22:03:16.685Z,-3.33
2023-01-29T22:08:20.605Z,-3.39
2023-01-29T22:13:23.628Z,-3.24
2023-01-29T22:18:26.990Z,-3.01
2023-01-29T22:23:33.659Z,-2.95
2023-01-29T22:28:36.222Z,-3.00
2023-01-29T22:33:38.981Z,-2.95
2023-01-29T22:38:43.420Z,-2.86
2023-01-29T22:43:46.035Z,-3.18
2023-01-29T22:48:48.596Z,-3.57
2023-01-29T22:53:54.806Z,-3.62
2023-01-29T22:59:00.229Z,-3.62
2023-01-29T23:04:03.349Z,-3.49
2023-01-29T23:09:07.503Z,-3.49
2023-01-29T23:14:10.461Z,-3.49
2023-01-29T23:19:15.576Z,-3.49
2023-01-29T23:24:19.170Z,-3.38
2023-01-29T23:29:23.323Z,-3.53
2023-01-29T23:34:29.942Z,-3.54
2023-01-29T23:39:35.894Z,-3.59
2023-01-29T23:44:40.670Z,-3.55
2023-01-29T23:49:43.757Z,-3.66
2023-01-29T23:54:46.634Z,-3.67
2023-01-29T23:59:49.899Z,-3.59
